createdAt,value
2023-05-09T00:01:58.476Z,18.45
2023-05-09T00:04:26.150Z,16.80
2023-05-09T00:06:52.927Z,19.20
2023-05-09T00:09:19.565Z,18.60
2023-05-09T00:11:46.150Z,17.88
2023-05-09T00:14:13.894Z,17.25
2023-05-09T00:16:40.785Z,18.13
2023-05-09T00:19:07.504Z,17.50
2023-05-09T00:21:34.170Z,18.50
2023-05-09T00:24:01.300Z,17.98
2023-05-09T00:26:28.279Z,17.52
2023-05-09T00:28:54.907Z,17.83
2023-05-09T00:31:21.536Z,17.83
2023-05-09T00:33:48.547Z,18.58
2023-05-09T00:36:15.210Z,18.38
2023-05-09T00:38:41.869Z,17.77
2023-05-09T00:41:09.563Z,18.30
2023-05-09T00:43:36.420Z,17.77
2023-05-09T00:46:03.100Z,17.83
2023-05-09T00:48:29.796Z,17.38
2023-05-09T00:50:56.577Z,17.17
2023-05-09T00:53:25.332Z,17.25
2023-05-09T00:55:55.836Z,17.85
2023-05-09T00:58:22.476Z,17.08
2023-05-09T01:00:49.380Z,17.35
2023-05-09T01:03:16.212Z,17.50
2023-05-09T01:05:52.791Z,17.85
2023-05-09T01:08:34.251Z,18.88
2023-05-09T01:11:11.628Z,18.05
2023-05-09T01:13:52.510Z,18.08
2023-05-09T01:16:19.090Z,17.50
2023-05-09T01:19:23.236Z,18.52
2023-05-09T01:21:54.748Z,17.48
2023-05-09T01:24:51.874Z,18.30
2023-05-09T01:27:39.284Z,18.17
2023-05-09T01:30:09.858Z,18.13
2023-05-09T01:32:39.233Z,16.15
2023-05-09T01:35:08.455Z,16.10
2023-05-09T01:37:39.557Z,16.65
2023-05-09T01:40:18.361Z,15.77
2023-05-09T01:42:57.517Z,14.07
2023-05-09T01:45:25.064Z,16.48
2023-05-09T01:47:53.512Z,14.68
2023-05-09T01:50:21.610Z,14.48
2023-05-09T01:52:50.740Z,16.20
2023-05-09T01:55:19.811Z,15.60
2023-05-09T01:57:47.134Z,15.07
2023-05-09T02:00:14.856Z,14.82
2023-05-09T02:02:42.008Z,16.13
2023-05-09T02:05:14.288Z,16.38
2023-05-09T02:07:42.004Z,15.55
2023-05-09T02:10:10.885Z,16.90
2023-05-09T02:12:38.206Z,15.82
2023-05-09T02:15:06.465Z,16.42
2023-05-09T02:17:33.123Z,16.83
2023-05-09T02:19:59.921Z,16.50
2023-05-09T02:22:27.077Z,17.05
2023-05-09T02:24:53.724Z,16.73
2023-05-09T02:27:21.168Z,18.70
2023-05-09T02:29:50.713Z,18.40
2023-05-09T02:32:23.097Z,18.15
2023-05-09T02:34:52.164Z,19.63
2023-05-09T02:37:20.402Z,18.08
2023-05-09T02:39:47.944Z,17.35
2023-05-09T02:42:28.699Z,17.88
2023-05-09T02:44:56.193Z,17.80
2023-05-09T02:47:23.027Z,19.05
2023-05-09T02:49:51.762Z,19.85
2023-05-09T02:52:25.904Z,20.73
2023-05-09T02:54:54.705Z,21.05
2023-05-09T02:57:21.292Z,20.20
2023-05-09T02:59:47.963Z,21.33
2023-05-09T03:02:14.751Z,22.20
2023-05-09T03:04:41.950Z,21.90
2023-05-09T03:07:08.591Z,20.95
2023-05-09T03:09:35.296Z,19.65
2023-05-09T03:12:02.481Z,20.77
2023-05-09T03:14:29.210Z,20.48
2023-05-09T03:16:56.177Z,22.45
2023-05-09T03:19:22.855Z,20.05
2023-05-09T03:21:49.579Z,21.55
2023-05-09T03:24:17.228Z,20.15
2023-05-09T03:26:43.886Z,19.92
2023-05-09T03:29:10.795Z,21.33
2023-05-09T03:31:37.738Z,21.98
2023-05-09T03:34:04.383Z,22.70
2023-05-09T03:36:33.097Z,20.40
2023-05-09T03:38:59.666Z,20.33
2023-05-09T03:41:26.740Z,21.25
2023-05-09T03:43:53.375Z,19.23
2023-05-09T03:46:19.944Z,21.63
2023-05-09T03:48:46.754Z,19.95
2023-05-09T03:51:13.627Z,20.48
2023-05-09T03:53:40.336Z,22.65
2023-05-09T03:56:07.566Z,21.20
2023-05-09T03:58:34.297Z,22.17
2023-05-09T04:01:01.921Z,20.13
2023-05-09T04:03:28.732Z,21.45
2023-05-09T04:05:55.924Z,21.95
2023-05-09T04:08:23.013Z,22.42
2023-05-09T04:10:50.865Z,19.60
2023-05-09T04:13:17.479Z,22.42
2023-05-09T04:15:45.227Z,22.33
2023-05-09T04:18:11.871Z,23.10
2023-05-09T04:20:38.390Z,21.45
2023-05-09T04:23:05.190Z,21.80
2023-05-09T04:25:31.969Z,22.05
2023-05-09T04:27:58.588Z,21.73
2023-05-09T04:30:27.103Z,22.20
2023-05-09T04:32:55.990Z,22.65
2023-05-09T04:35:22.811Z,20.60
2023-05-09T04:37:49.886Z,21.75
2023-05-09T04:40:16.854Z,20.80
2023-05-09T04:42:43.542Z,22.00
2023-05-09T04:45:13.644Z,20.58
2023-05-09T04:47:40.605Z,20.23
2023-05-09T04:50:08.317Z,21.20
2023-05-09T04:52:34.904Z,19.55
2023-05-09T04:55:01.892Z,20.15
2023-05-09T04:57:28.611Z,19.55
2023-05-09T04:59:55.395Z,20.45
2023-05-09T05:02:22.355Z,20.77
2023-05-09T05:04:49.238Z,19.90
2023-05-09T05:07:15.884Z,19.02
2023-05-09T05:09:42.819Z,20.15
2023-05-09T05:12:10.665Z,20.60
2023-05-09T05:14:37.428Z,19.80
2023-05-09T05:17:04.302Z,19.25
2023-05-09T05:19:30.964Z,19.90
2023-05-09T05:21:57.624Z,20.08
2023-05-09T05:24:24.364Z,19.85
2023-05-09T05:26:50.972Z,18.75
2023-05-09T05:29:18.003Z,20.27
2023-05-09T05:31:44.700Z,20.95
2023-05-09T05:34:11.250Z,19.33
2023-05-09T05:36:37.802Z,20.17
2023-05-09T05:39:04.599Z,18.98
2023-05-09T05:41:31.201Z,19.48
2023-05-09T05:43:57.903Z,19.35
2023-05-09T05:46:24.788Z,18.95
2023-05-09T05:48:51.550Z,19.52
2023-05-09T05:51:18.269Z,18.15
2023-05-09T05:53:44.971Z,18.50
2023-05-09T05:56:11.578Z,18.50
2023-05-09T05:58:38.327Z,18.27
2023-05-09T06:01:05.051Z,17.90
2023-05-09T06:03:32.064Z,19.58
2023-05-09T06:05:59.042Z,18.83
2023-05-09T06:08:25.717Z,22.05
2023-05-09T06:10:52.506Z,18.02
2023-05-09T06:13:19.151Z,18.35
2023-05-09T06:15:45.881Z,19.27
2023-05-09T06:18:12.739Z,17.98
2023-05-09T06:20:39.443Z,18.67
2023-05-09T06:23:06.246Z,18.50
2023-05-09T06:25:33.226Z,17.55
2023-05-09T06:27:59.830Z,17.30
2023-05-09T06:30:27.228Z,17.20
2023-05-09T06:32:55.131Z,16.85
2023-05-09T06:35:22.276Z,16.55
2023-05-09T06:37:49.373Z,16.75
2023-05-09T06:40:17.146Z,16.50
2023-05-09T06:42:44.538Z,15.20
2023-05-09T06:45:12.643Z,14.98
2023-05-09T06:47:39.437Z,15.45
2023-05-09T06:50:06.735Z,14.95
2023-05-09T06:52:33.398Z,14.18
2023-05-09T06:54:59.975Z,15.27
2023-05-09T06:57:26.892Z,14.90
2023-05-09T06:59:53.474Z,14.15
2023-05-09T07:02:23.329Z,14.80
2023-05-09T07:04:50.158Z,14.65
2023-05-09T07:07:17.259Z,16.33
2023-05-09T07:09:43.902Z,15.02
2023-05-09T07:12:10.513Z,15.15
2023-05-09T07:14:37.177Z,15.00
2023-05-09T07:17:21.229Z,14.02
2023-05-09T07:19:50.134Z,14.52
2023-05-09T07:22:16.877Z,15.88
2023-05-09T07:24:46.422Z,15.63
2023-05-09T07:27:13.143Z,16.13
2023-05-09T07:29:39.749Z,15.55
2023-05-09T07:32:06.653Z,15.13
2023-05-09T07:34:33.441Z,15.80
2023-05-09T07:37:00.155Z,15.82
2023-05-09T07:39:26.732Z,14.77
2023-05-09T07:41:53.325Z,15.55
2023-05-09T07:44:19.938Z,15.45
2023-05-09T07:46:46.668Z,15.93
2023-05-09T07:49:13.489Z,15.65
2023-05-09T07:51:40.092Z,15.13
2023-05-09T07:54:06.984Z,15.73
2023-05-09T07:56:33.849Z,14.45
2023-05-09T07:59:00.708Z,15.40
2023-05-09T08:01:27.366Z,17.02
2023-05-09T08:03:54.104Z,15.60
2023-05-09T08:06:20.828Z,15.02
2023-05-09T08:08:47.373Z,15.23
2023-05-09T08:11:14.096Z,15.63
2023-05-09T08:13:40.722Z,13.82
2023-05-09T08:16:07.473Z,15.48
2023-05-09T08:18:34.039Z,15.43
2023-05-09T08:21:01.115Z,14.65
2023-05-09T08:23:29.992Z,15.05
2023-05-09T08:25:56.821Z,14.98
2023-05-09T08:28:24.129Z,15.55
2023-05-09T08:30:57.713Z,16.05
2023-05-09T08:33:24.496Z,15.50
2023-05-09T08:35:54.630Z,15.35
2023-05-09T08:38:21.292Z,14.80
2023-05-09T08:40:48.131Z,16.00
2023-05-09T08:43:19.870Z,15.20
2023-05-09T08:45:51.550Z,13.40
2023-05-09T08:48:19.221Z,13.68
2023-05-09T08:50:45.889Z,16.05
2023-05-09T08:53:13.600Z,14.57
2023-05-09T08:55:40.736Z,14.98
2023-05-09T08:58:09.088Z,14.52
2023-05-09T09:00:38.702Z,14.77
2023-05-09T09:03:07.520Z,13.45
2023-05-09T09:05:41.952Z,14.55
2023-05-09T09:08:10.241Z,15.02
2023-05-09T09:10:41.831Z,14.48
2023-05-09T09:13:11.377Z,14.98
2023-05-09T09:15:40.452Z,14.88
2023-05-09T09:18:16.083Z,13.63
2023-05-09T09:20:49.828Z,14.25
2023-05-09T09:23:23.792Z,15.32
2023-05-09T09:25:59.598Z,13.98
2023-05-09T09:28:27.863Z,13.95
2023-05-09T09:30:54.494Z,13.57
2023-05-09T09:33:25.843Z,13.20
2023-05-09T09:35:54.337Z,13.50
2023-05-09T09:38:23.911Z,13.80
2023-05-09T09:40:56.311Z,13.80
2023-05-09T09:43:31.452Z,14.35
2023-05-09T09:48:34.577Z,13.38
2023-05-09T09:51:11.634Z,14.45
2023-05-09T09:53:44.582Z,13.18
2023-05-09T09:56:11.754Z,12.93
2023-05-09T09:58:38.513Z,13.48
2023-05-09T10:01:16.788Z,14.23
2023-05-09T10:03:46.186Z,12.73
2023-05-09T10:06:15.070Z,14.00
2023-05-09T10:08:44.202Z,11.73
2023-05-09T10:11:11.281Z,12.40
2023-05-09T10:13:38.638Z,12.55
2023-05-09T10:16:08.828Z,13.30
2023-05-09T10:18:36.154Z,12.52
2023-05-09T10:21:03.762Z,12.25
2023-05-09T10:23:31.793Z,11.30
2023-05-09T10:26:18.423Z,12.48
2023-05-09T10:28:47.651Z,13.25
2023-05-09T10:31:27.196Z,13.30
2023-05-09T10:33:55.872Z,14.07
2023-05-09T10:36:26.395Z,12.10
2023-05-09T10:38:56.493Z,11.63
2023-05-09T10:41:23.913Z,12.68
2023-05-09T10:43:51.053Z,12.55
2023-05-09T10:46:18.012Z,11.52
2023-05-09T10:48:45.561Z,11.25
2023-05-09T10:51:13.038Z,11.98
2023-05-09T10:53:46.944Z,11.32
2023-05-09T10:56:33.723Z,12.18
2023-05-09T10:59:01.433Z,11.15
2023-05-09T11:01:46.521Z,11.30
2023-05-09T11:04:16.524Z,12.13
2023-05-09T11:06:51.002Z,11.70
2023-05-09T11:09:38.964Z,11.75
2023-05-09T11:12:06.127Z,11.60
2023-05-09T11:14:35.961Z,11.05
2023-05-09T11:17:04.973Z,9.85
2023-05-09T11:19:46.747Z,9.00
2023-05-09T11:22:17.493Z,8.35
2023-05-09T11:24:51.793Z,7.68
2023-05-09T11:27:23.410Z,7.13
2023-05-09T11:29:55.475Z,6.40
2023-05-09T11:32:27.124Z,5.80
2023-05-09T11:35:14.916Z,5.85
2023-05-09T11:37:48.040Z,5.32
2023-05-09T11:40:17.205Z,5.07
2023-05-09T11:42:55.450Z,5.88
2023-05-09T11:45:26.838Z,6.68
2023-05-09T11:47:54.197Z,6.40
2023-05-09T11:50:21.605Z,6.05
2023-05-09T11:52:49.330Z,7.15
2023-05-09T11:55:19.361Z,7.20
2023-05-09T11:57:51.800Z,6.57
2023-05-09T12:00:26.189Z,6.88
2023-05-09T12:02:53.831Z,6.57
2023-05-09T12:05:22.755Z,6.50
2023-05-09T12:07:50.196Z,5.93
2023-05-09T12:10:20.175Z,5.60
2023-05-09T12:12:48.929Z,8.20
2023-05-09T12:15:16.839Z,6.70
2023-05-09T12:17:46.768Z,6.43
2023-05-09T12:20:13.894Z,6.65
2023-05-09T12:22:43.793Z,6.63
2023-05-09T12:25:11.747Z,6.65
2023-05-09T12:27:40.634Z,6.50
2023-05-09T12:30:13.870Z,5.43
2023-05-09T12:32:41.921Z,6.38
2023-05-09T12:35:10.348Z,5.90
2023-05-09T12:37:37.541Z,5.70
2023-05-09T12:40:15.430Z,5.63
2023-05-09T12:42:46.055Z,5.72
2023-05-09T12:45:13.359Z,5.05
2023-05-09T12:47:42.024Z,5.72
2023-05-09T12:50:14.165Z,5.18
2023-05-09T12:52:54.568Z,4.68
2023-05-09T12:55:29.042Z,3.88
2023-05-09T12:58:01.511Z,4.30
2023-05-09T13:00:28.757Z,4.25
2023-05-09T13:02:55.622Z,4.18
2023-05-09T13:05:23.500Z,3.58
2023-05-09T13:07:59.557Z,3.60
2023-05-09T13:10:28.959Z,3.65
2023-05-09T13:12:57.261Z,3.72
2023-05-09T13:15:26.469Z,3.40
2023-05-09T13:17:54.384Z,3.50
2023-05-09T13:20:21.251Z,3.75
2023-05-09T13:22:47.917Z,3.67
2023-05-09T13:25:16.001Z,3.53
2023-05-09T13:27:42.633Z,3.92
2023-05-09T13:30:09.588Z,4.30
2023-05-09T13:32:36.806Z,4.85
2023-05-09T13:35:06.633Z,4.47
2023-05-09T13:37:34.414Z,4.38
2023-05-09T13:40:01.179Z,4.60
2023-05-09T13:42:28.507Z,3.60
2023-05-09T13:44:55.274Z,3.70
2023-05-09T13:47:22.023Z,3.88
2023-05-09T13:49:48.727Z,3.65
2023-05-09T13:52:16.376Z,4.20
2023-05-09T13:54:43.129Z,4.13
2023-05-09T13:57:10.048Z,4.15
2023-05-09T13:59:37.955Z,3.90
2023-05-09T14:02:04.810Z,3.63
2023-05-09T14:04:32.047Z,3.90
2023-05-09T14:06:59.788Z,3.80
2023-05-09T14:09:26.499Z,4.20
2023-05-09T14:11:53.798Z,3.72
2023-05-09T14:14:21.877Z,4.95
2023-05-09T14:16:49.064Z,3.88
2023-05-09T14:19:16.385Z,4.18
2023-05-09T14:21:43.908Z,3.65
2023-05-09T14:24:13.652Z,3.63
2023-05-09T14:26:42.790Z,3.88
2023-05-09T14:29:09.395Z,6.72
2023-05-09T14:31:36.097Z,6.68
2023-05-09T14:34:04.662Z,7.70
2023-05-09T14:36:32.316Z,7.22
2023-05-09T14:38:59.154Z,7.43
2023-05-09T14:41:25.960Z,8.40
2023-05-09T14:43:52.863Z,8.23
2023-05-09T14:46:19.643Z,9.48
2023-05-09T14:48:46.400Z,9.13
2023-05-09T14:51:13.052Z,10.25
2023-05-09T14:53:41.568Z,9.70
2023-05-09T14:56:09.412Z,8.98
2023-05-09T14:58:36.255Z,9.27
2023-05-09T15:01:04.181Z,8.57
2023-05-09T15:03:31.249Z,9.05
2023-05-09T15:06:02.188Z,8.85
2023-05-09T15:08:28.756Z,9.35
2023-05-09T15:10:56.616Z,8.68
2023-05-09T15:13:26.059Z,10.32
2023-05-09T15:15:53.090Z,9.55
2023-05-09T15:18:21.580Z,9.32
2023-05-09T15:20:48.255Z,9.52
2023-05-09T15:23:14.946Z,9.43
2023-05-09T15:25:42.778Z,9.13
2023-05-09T15:28:09.470Z,8.20
2023-05-09T15:30:38.315Z,8.95
2023-05-09T15:33:06.493Z,8.88
2023-05-09T15:35:33.452Z,8.82
2023-05-09T15:38:00.313Z,8.15
2023-05-09T15:40:30.394Z,9.48
2023-05-09T15:42:58.338Z,9.15
2023-05-09T15:45:25.380Z,10.43
2023-05-09T15:47:52.814Z,12.38
2023-05-09T15:50:19.533Z,12.85
2023-05-09T15:52:46.154Z,12.95
2023-05-09T15:55:13.111Z,12.32
2023-05-09T15:57:40.048Z,12.60
2023-05-09T16:00:08.661Z,13.07
2023-05-09T16:02:35.600Z,13.63
2023-05-09T16:05:05.677Z,13.15
2023-05-09T16:07:35.820Z,13.75
2023-05-09T16:10:02.962Z,14.18
2023-05-09T16:12:32.608Z,13.93
2023-05-09T16:15:00.546Z,15.27
2023-05-09T16:17:28.083Z,14.95
2023-05-09T16:19:55.321Z,17.02
2023-05-09T16:22:22.520Z,15.88
2023-05-09T16:24:49.261Z,16.50
2023-05-09T16:27:16.354Z,15.40
2023-05-09T16:29:47.976Z,14.52
2023-05-09T16:32:15.020Z,14.68
2023-05-09T16:34:42.467Z,15.45
2023-05-09T16:37:10.223Z,14.45
2023-05-09T16:39:37.126Z,14.95
2023-05-09T16:42:05.293Z,15.70
2023-05-09T16:44:32.255Z,14.38
2023-05-09T16:46:59.021Z,15.40
2023-05-09T16:49:25.765Z,15.80
2023-05-09T16:51:52.393Z,16.90
2023-05-09T16:54:19.146Z,14.90
2023-05-09T16:56:46.440Z,17.38
2023-05-09T16:59:13.561Z,15.88
2023-05-09T17:01:40.270Z,17.05
2023-05-09T17:04:07.134Z,15.50
2023-05-09T17:06:34.972Z,15.07
2023-05-09T17:09:01.725Z,16.90
2023-05-09T17:11:29.000Z,17.27
2023-05-09T17:13:55.898Z,17.08
2023-05-09T17:16:22.648Z,18.27
2023-05-09T17:18:51.967Z,16.33
2023-05-09T17:21:20.222Z,15.85
2023-05-09T17:23:49.839Z,16.83
2023-05-09T17:26:16.594Z,17.88
2023-05-09T17:28:45.289Z,16.17
2023-05-09T17:31:13.053Z,17.40
2023-05-09T17:33:42.418Z,16.45
2023-05-09T17:36:09.300Z,14.68
2023-05-09T17:38:38.837Z,15.85
2023-05-09T17:41:05.791Z,15.27
2023-05-09T17:43:32.699Z,14.18
2023-05-09T17:45:59.800Z,14.45
2023-05-09T17:48:27.796Z,12.52
2023-05-09T17:50:55.254Z,13.85
2023-05-09T17:53:22.942Z,13.95
2023-05-09T17:55:50.654Z,14.02
2023-05-09T17:58:17.406Z,13.80
2023-05-09T18:01:01.065Z,13.63
2023-05-09T18:03:30.512Z,14.00
2023-05-09T18:06:01.742Z,13.60
2023-05-09T18:08:29.680Z,13.13
2023-05-09T18:10:57.630Z,13.57
2023-05-09T18:13:24.511Z,15.05
2023-05-09T18:15:53.907Z,14.93
2023-05-09T18:18:28.322Z,15.32
2023-05-09T18:20:56.815Z,17.03
2023-05-09T18:23:25.558Z,16.50
2023-05-09T18:25:54.056Z,15.05
2023-05-09T18:28:27.401Z,14.15
2023-05-09T18:30:55.569Z,13.95
2023-05-09T18:33:36.492Z,14.85
2023-05-09T18:36:04.004Z,13.48
2023-05-09T18:38:34.787Z,13.35
2023-05-09T18:41:01.642Z,12.70
2023-05-09T18:43:29.930Z,11.50
2023-05-09T18:45:56.517Z,11.20
2023-05-09T18:48:23.285Z,11.52
2023-05-09T18:50:52.382Z,11.40
2023-05-09T18:53:19.616Z,10.60
2023-05-09T18:55:48.322Z,10.00
2023-05-09T18:58:15.285Z,10.57
2023-05-09T19:00:42.650Z,9.23
2023-05-09T19:03:10.513Z,9.30
2023-05-09T19:05:37.225Z,8.50
2023-05-09T19:08:04.058Z,7.80
2023-05-09T19:10:31.176Z,6.40
2023-05-09T19:12:57.860Z,6.90
2023-05-09T19:15:24.754Z,7.07
2023-05-09T19:17:51.502Z,7.05
2023-05-09T19:20:18.687Z,7.78
2023-05-09T19:22:48.103Z,7.43
2023-05-09T19:25:14.883Z,7.00
2023-05-09T19:27:41.505Z,7.00
2023-05-09T19:30:09.378Z,7.18
2023-05-09T19:32:37.143Z,8.02
2023-05-09T19:35:03.988Z,7.47
2023-05-09T19:37:30.504Z,8.23
2023-05-09T19:39:57.261Z,8.00
2023-05-09T19:42:23.992Z,8.13
2023-05-09T19:44:52.481Z,7.25
2023-05-09T19:47:19.629Z,8.70
2023-05-09T19:49:46.291Z,8.65
2023-05-09T19:52:13.014Z,8.02
2023-05-09T19:54:39.692Z,10.23
2023-05-09T19:57:06.970Z,9.00
2023-05-09T19:59:34.027Z,8.40
2023-05-09T20:02:00.913Z,7.47
2023-05-09T20:04:27.970Z,6.00
2023-05-09T20:06:54.556Z,4.78
2023-05-09T20:09:21.212Z,4.97
2023-05-09T20:11:48.239Z,5.28
2023-05-09T20:14:14.914Z,4.20
2023-05-09T20:16:42.394Z,4.85
2023-05-09T20:19:09.576Z,4.95
2023-05-09T20:21:36.225Z,4.75
2023-05-09T20:24:02.976Z,4.47
2023-05-09T20:26:29.751Z,4.45
2023-05-09T20:29:01.179Z,4.97
2023-05-09T20:31:29.039Z,4.75
2023-05-09T20:33:57.316Z,4.93
2023-05-09T20:36:24.767Z,4.72
2023-05-09T20:38:51.499Z,4.75
2023-05-09T20:41:18.054Z,4.80
2023-05-09T20:43:44.613Z,5.20
2023-05-09T20:46:11.757Z,4.93
2023-05-09T20:48:38.316Z,4.65
2023-05-09T20:51:05.027Z,5.10
2023-05-09T20:53:32.369Z,5.00
2023-05-09T20:55:59.829Z,5.10
2023-05-09T20:58:27.963Z,5.40
2023-05-09T21:00:54.511Z,5.53
2023-05-09T21:03:21.227Z,5.65
2023-05-09T21:05:47.919Z,5.22
2023-05-09T21:08:14.438Z,4.85
2023-05-09T21:10:41.102Z,5.00
2023-05-09T21:13:07.805Z,4.82
2023-05-09T21:15:34.475Z,5.20
2023-05-09T21:18:01.220Z,5.57
2023-05-09T21:20:27.761Z,5.32
2023-05-09T21:22:54.390Z,5.85
2023-05-09T21:25:21.215Z,5.53
2023-05-09T21:27:47.788Z,5.57
2023-05-09T21:30:14.870Z,5.43
2023-05-09T21:32:41.595Z,5.63
2023-05-09T21:35:12.440Z,5.32
2023-05-09T21:37:39.365Z,4.53
2023-05-09T21:40:06.776Z,5.60
2023-05-09T21:42:33.346Z,5.47
2023-05-09T21:44:59.940Z,4.63
2023-05-09T21:47:27.091Z,4.28
2023-05-09T21:49:54.498Z,5.05
2023-05-09T21:52:23.364Z,4.00
2023-05-09T21:54:49.931Z,3.97
2023-05-09T21:57:16.526Z,4.63
2023-05-09T21:59:43.101Z,5.00
2023-05-09T22:02:09.805Z,4.28
2023-05-09T22:04:36.566Z,4.25
2023-05-09T22:07:03.336Z,3.90
2023-05-09T22:09:30.261Z,4.75
2023-05-09T22:11:56.810Z,3.88
2023-05-09T22:14:23.474Z,4.22
2023-05-09T22:16:50.193Z,3.95
2023-05-09T22:19:17.421Z,4.30
2023-05-09T22:21:44.560Z,4.40
2023-05-09T22:24:11.176Z,4.13
2023-05-09T22:26:37.866Z,4.68
2023-05-09T22:29:04.465Z,4.30
2023-05-09T22:31:31.086Z,4.35
2023-05-09T22:33:57.771Z,3.95
2023-05-09T22:36:24.900Z,4.55
2023-05-09T22:38:51.580Z,4.10
2023-05-09T22:41:18.111Z,4.55
2023-05-09T22:43:44.930Z,4.30
2023-05-09T22:46:11.514Z,4.35
2023-05-09T22:48:38.058Z,4.38
2023-05-09T22:51:04.673Z,4.20
2023-05-09T22:53:31.287Z,4.40
2023-05-09T22:55:57.963Z,4.50
2023-05-09T22:58:24.817Z,4.53
2023-05-09T23:00:51.398Z,4.38
2023-05-09T23:03:18.110Z,4.10
2023-05-09T23:05:44.723Z,4.18
2023-05-09T23:08:11.336Z,4.40
2023-05-09T23:10:38.040Z,4.20
2023-05-09T23:13:04.776Z,4.00
2023-05-09T23:15:31.475Z,4.82
2023-05-09T23:17:58.274Z,4.13
2023-05-09T23:20:25.700Z,4.10
2023-05-09T23:22:52.331Z,3.70
2023-05-09T23:25:18.990Z,4.80
2023-05-09T23:27:46.718Z,4.28
2023-05-09T23:30:13.455Z,4.00
2023-05-09T23:32:40.152Z,4.30
2023-05-09T23:35:07.100Z,4.22
2023-05-09T23:37:33.990Z,5.22
2023-05-09T23:40:00.930Z,4.32
2023-05-09T23:42:27.438Z,4.07
2023-05-09T23:44:54.070Z,4.15
2023-05-09T23:47:20.681Z,3.95
2023-05-09T23:49:47.285Z,4.57
2023-05-09T23:52:14.509Z,5.10
2023-05-09T23:54:41.230Z,2.80
2023-05-09T23:57:07.805Z,4.13
2023-05-09T23:59:34.635Z,3.95
